DLH3YJ EDDM-LICJ
Flight info
| Callsign | DLH3YJ |
|---|---|
| Flight time | 1h 36m |
| Altitude | 37000 |
| Route | TURBU6E TURBU Y107 TOBSO DCT BAKOR DCT SOVUB DCT RITEB DCT GIANO |
| Aircraft | A320/M-SDE2E3FGIJ1LORWXYZ/HB1 |
Departure
| Time | 2026-04-30 08:30 |
|---|---|
| Airport | Munich Airport (EDDM) |
Arrival
| Time | 2026-04-30 10:06 |
|---|---|
| Airport | Falcone–Borsellino Airport (LICJ) |
| Time | Latitude | Longitude | Altitude | Speed | Heading |
|---|---|---|---|---|---|
| 2026-04-30 07:58 | 48.35547 | 11.79303 | 1472 ft | 0 kts | 263° |
| 2026-04-30 08:17 | 48.35548 | 11.79319 | 1485 ft | 4 kts | 263° |
| 2026-04-30 08:18 | 48.35551 | 11.79359 | 1481 ft | 4 kts | 263° |
| 2026-04-30 08:18 | 48.35554 | 11.79392 | 1479 ft | 4 kts | 251° |
| 2026-04-30 08:18 | 48.35567 | 11.79423 | 1475 ft | 4 kts | 209° |
| 2026-04-30 08:18 | 48.35590 | 11.79430 | 1478 ft | 4 kts | 173° |
| 2026-04-30 08:19 | 48.35605 | 11.79428 | 1479 ft | 0 kts | 173° |
| 2026-04-30 08:22 | 48.35595 | 11.79430 | 1479 ft | 5 kts | 173° |
| 2026-04-30 08:22 | 48.35547 | 11.79438 | 1483 ft | 10 kts | 173° |
| 2026-04-30 08:22 | 48.35473 | 11.79452 | 1485 ft | 11 kts | 174° |
| 2026-04-30 08:22 | 48.35391 | 11.79466 | 1480 ft | 14 kts | 173° |
| 2026-04-30 08:23 | 48.35289 | 11.79484 | 1474 ft | 16 kts | 173° |
| 2026-04-30 08:23 | 48.35175 | 11.79504 | 1480 ft | 17 kts | 173° |
| 2026-04-30 08:23 | 48.35048 | 11.79526 | 1485 ft | 19 kts | 174° |
| 2026-04-30 08:23 | 48.34915 | 11.79549 | 1474 ft | 19 kts | 173° |
| 2026-04-30 08:24 | 48.34814 | 11.79555 | 1485 ft | 13 kts | 200° |
| 2026-04-30 08:24 | 48.34782 | 11.79449 | 1475 ft | 11 kts | 264° |
| 2026-04-30 08:24 | 48.34770 | 11.79286 | 1480 ft | 19 kts | 263° |
| 2026-04-30 08:24 | 48.34755 | 11.79097 | 1485 ft | 17 kts | 263° |
| 2026-04-30 08:25 | 48.34741 | 11.78923 | 1485 ft | 16 kts | 263° |
| 2026-04-30 08:25 | 48.34729 | 11.78763 | 1485 ft | 15 kts | 263° |
| 2026-04-30 08:25 | 48.34718 | 11.78610 | 1480 ft | 17 kts | 264° |
| 2026-04-30 08:25 | 48.34699 | 11.78369 | 1483 ft | 23 kts | 263° |
| 2026-04-30 08:26 | 48.34682 | 11.78135 | 1485 ft | 22 kts | 263° |
| 2026-04-30 08:26 | 48.34665 | 11.77918 | 1478 ft | 20 kts | 263° |
| 2026-04-30 08:26 | 48.34650 | 11.77718 | 1474 ft | 19 kts | 263° |
| 2026-04-30 08:26 | 48.34635 | 11.77532 | 1479 ft | 17 kts | 263° |
| 2026-04-30 08:27 | 48.34622 | 11.77360 | 1481 ft | 16 kts | 263° |
| 2026-04-30 08:27 | 48.34609 | 11.77202 | 1478 ft | 15 kts | 263° |
| 2026-04-30 08:27 | 48.34598 | 11.77057 | 1485 ft | 13 kts | 263° |
| 2026-04-30 08:27 | 48.34587 | 11.76923 | 1485 ft | 13 kts | 263° |
| 2026-04-30 08:28 | 48.34576 | 11.76764 | 1483 ft | 17 kts | 264° |
| 2026-04-30 08:28 | 48.34500 | 11.76696 | 1481 ft | 15 kts | 174° |
| 2026-04-30 08:28 | 48.34403 | 11.76757 | 1478 ft | 18 kts | 128° |
| 2026-04-30 08:28 | 48.34350 | 11.76941 | 1473 ft | 19 kts | 114° |
| 2026-04-30 08:29 | 48.34296 | 11.77123 | 1483 ft | 19 kts | 114° |
| 2026-04-30 08:29 | 48.34244 | 11.77296 | 1476 ft | 18 kts | 110° |
| 2026-04-30 08:29 | 48.34253 | 11.77501 | 1481 ft | 32 kts | 84° |
| 2026-04-30 08:29 | 48.34307 | 11.78203 | 1486 ft | 100 kts | 83° |
| 2026-04-30 08:30 | 48.34406 | 11.79489 | 1674 ft | 135 kts | 84° |
| 2026-04-30 08:30 | 48.34494 | 11.80835 | 2505 ft | 126 kts | 86° |
| 2026-04-30 08:30 | 48.34580 | 11.82173 | 3060 ft | 139 kts | 83° |
| 2026-04-30 08:30 | 48.34698 | 11.83754 | 3385 ft | 164 kts | 85° |
| 2026-04-30 08:31 | 48.34836 | 11.85568 | 3803 ft | 184 kts | 85° |
| 2026-04-30 08:31 | 48.34992 | 11.87619 | 4219 ft | 212 kts | 85° |
| 2026-04-30 08:31 | 48.35167 | 11.89882 | 5060 ft | 221 kts | 84° |
| 2026-04-30 08:31 | 48.35358 | 11.92214 | 5944 ft | 227 kts | 84° |
| 2026-04-30 08:32 | 48.35416 | 11.94592 | 6889 ft | 232 kts | 103° |
| 2026-04-30 08:32 | 48.34616 | 11.96711 | 7694 ft | 241 kts | 134° |
| 2026-04-30 08:32 | 48.33269 | 11.98288 | 8561 ft | 248 kts | 139° |
| 2026-04-30 08:32 | 48.31880 | 11.99881 | 9385 ft | 256 kts | 140° |
| 2026-04-30 08:33 | 48.30416 | 12.01473 | 10202 ft | 265 kts | 148° |
| 2026-04-30 08:33 | 48.28666 | 12.02486 | 10956 ft | 277 kts | 165° |
| 2026-04-30 08:33 | 48.26671 | 12.02688 | 11415 ft | 298 kts | 181° |
| 2026-04-30 08:33 | 48.24562 | 12.02528 | 12053 ft | 309 kts | 180° |
| 2026-04-30 08:34 | 48.22406 | 12.02380 | 12903 ft | 312 kts | 180° |
| 2026-04-30 08:34 | 48.20205 | 12.02243 | 13647 ft | 318 kts | 180° |
| 2026-04-30 08:34 | 48.17981 | 12.02111 | 14421 ft | 323 kts | 180° |
| 2026-04-30 08:34 | 48.15718 | 12.01981 | 15124 ft | 328 kts | 179° |
| 2026-04-30 08:35 | 48.13422 | 12.01851 | 15810 ft | 332 kts | 180° |
| 2026-04-30 08:35 | 48.11104 | 12.01717 | 16546 ft | 336 kts | 180° |
| 2026-04-30 08:35 | 48.08753 | 12.01582 | 17228 ft | 340 kts | 179° |
| 2026-04-30 08:35 | 48.06378 | 12.01168 | 17856 ft | 351 kts | 189° |
| 2026-04-30 08:36 | 48.03941 | 12.00211 | 18002 ft | 373 kts | 194° |
| 2026-04-30 08:36 | 48.01388 | 11.99137 | 18301 ft | 387 kts | 194° |
| 2026-04-30 08:36 | 47.98813 | 11.98033 | 18845 ft | 393 kts | 194° |
| 2026-04-30 08:36 | 47.96166 | 11.96895 | 19403 ft | 398 kts | 194° |
| 2026-04-30 08:37 | 47.93487 | 11.95753 | 19954 ft | 402 kts | 193° |
| 2026-04-30 08:37 | 47.90743 | 11.94951 | 20508 ft | 403 kts | 183° |
| 2026-04-30 08:37 | 47.87940 | 11.94790 | 21064 ft | 404 kts | 177° |
| 2026-04-30 08:37 | 47.85114 | 11.94759 | 21619 ft | 408 kts | 176° |
| 2026-04-30 08:38 | 47.82262 | 11.94719 | 22175 ft | 412 kts | 176° |
| 2026-04-30 08:38 | 47.79386 | 11.94670 | 22727 ft | 415 kts | 177° |
| 2026-04-30 08:38 | 47.76488 | 11.94615 | 23259 ft | 418 kts | 177° |
| 2026-04-30 08:38 | 47.73568 | 11.94555 | 23790 ft | 422 kts | 177° |
| 2026-04-30 08:39 | 47.70621 | 11.94495 | 24248 ft | 425 kts | 177° |
| 2026-04-30 08:39 | 47.67656 | 11.94436 | 24685 ft | 428 kts | 177° |
| 2026-04-30 08:39 | 47.64666 | 11.94381 | 25140 ft | 431 kts | 176° |
| 2026-04-30 08:39 | 47.61655 | 11.94331 | 25546 ft | 434 kts | 176° |
| 2026-04-30 08:40 | 47.58624 | 11.94283 | 25974 ft | 437 kts | 177° |
| 2026-04-30 08:40 | 47.55575 | 11.94232 | 26377 ft | 440 kts | 177° |
| 2026-04-30 08:40 | 47.52508 | 11.94175 | 26785 ft | 442 kts | 177° |
| 2026-04-30 08:40 | 47.49423 | 11.94118 | 27177 ft | 445 kts | 177° |
| 2026-04-30 08:41 | 47.46316 | 11.94062 | 27568 ft | 448 kts | 176° |
| 2026-04-30 08:41 | 47.43190 | 11.93959 | 27950 ft | 452 kts | 180° |
| 2026-04-30 08:41 | 47.40045 | 11.93408 | 28342 ft | 457 kts | 184° |
| 2026-04-30 08:41 | 47.36887 | 11.92774 | 28760 ft | 459 kts | 185° |
| 2026-04-30 08:42 | 47.33716 | 11.92139 | 29173 ft | 461 kts | 184° |
| 2026-04-30 08:42 | 47.30526 | 11.91504 | 29551 ft | 464 kts | 184° |
| 2026-04-30 08:42 | 47.27320 | 11.90864 | 29893 ft | 467 kts | 184° |
| 2026-04-30 08:42 | 47.24089 | 11.90221 | 30196 ft | 470 kts | 184° |
| 2026-04-30 08:43 | 47.20841 | 11.89574 | 30550 ft | 472 kts | 184° |
| 2026-04-30 08:43 | 47.17577 | 11.88925 | 30851 ft | 474 kts | 185° |
| 2026-04-30 08:43 | 47.14305 | 11.88276 | 31198 ft | 475 kts | 185° |
| 2026-04-30 08:43 | 47.11023 | 11.87621 | 31519 ft | 477 kts | 185° |
| 2026-04-30 08:44 | 47.07725 | 11.86967 | 31812 ft | 479 kts | 185° |
| 2026-04-30 08:44 | 47.04415 | 11.86314 | 32044 ft | 481 kts | 185° |
| 2026-04-30 08:44 | 47.01105 | 11.85642 | 32466 ft | 480 kts | 186° |
| 2026-04-30 08:44 | 46.97816 | 11.84806 | 32853 ft | 480 kts | 189° |
| 2026-04-30 08:45 | 46.94546 | 11.83799 | 33203 ft | 480 kts | 192° |
| 2026-04-30 08:45 | 46.91298 | 11.82692 | 33628 ft | 479 kts | 192° |
| 2026-04-30 08:45 | 46.88061 | 11.81554 | 34029 ft | 479 kts | 193° |
| 2026-04-30 08:45 | 46.84817 | 11.80432 | 34395 ft | 478 kts | 192° |
| 2026-04-30 08:46 | 46.81576 | 11.79349 | 34720 ft | 478 kts | 192° |
| 2026-04-30 08:46 | 46.78336 | 11.78306 | 35076 ft | 476 kts | 192° |
| 2026-04-30 08:46 | 46.75105 | 11.77292 | 35457 ft | 473 kts | 192° |
| 2026-04-30 08:46 | 46.71934 | 11.76311 | 35843 ft | 471 kts | 192° |
| 2026-04-30 08:47 | 46.68738 | 11.75323 | 36209 ft | 469 kts | 193° |
| 2026-04-30 08:47 | 46.65554 | 11.74333 | 36531 ft | 467 kts | 193° |
| 2026-04-30 08:47 | 46.62363 | 11.73479 | 36846 ft | 466 kts | 187° |
| 2026-04-30 08:47 | 46.59127 | 11.73281 | 37155 ft | 465 kts | 178° |
| 2026-04-30 08:48 | 46.55907 | 11.73717 | 37256 ft | 464 kts | 174° |
| 2026-04-30 08:48 | 46.49518 | 11.74854 | 37281 ft | 461 kts | 173° |
| 2026-04-30 08:49 | 46.43147 | 11.75991 | 37281 ft | 461 kts | 174° |
| 2026-04-30 08:49 | 46.36784 | 11.77122 | 37287 ft | 460 kts | 174° |
| 2026-04-30 08:50 | 46.30392 | 11.78240 | 37305 ft | 464 kts | 174° |
| 2026-04-30 08:50 | 46.23982 | 11.79359 | 37296 ft | 464 kts | 174° |
| 2026-04-30 08:51 | 46.17564 | 11.80478 | 37300 ft | 464 kts | 174° |
| 2026-04-30 08:51 | 46.11142 | 11.81599 | 37306 ft | 465 kts | 174° |
| 2026-04-30 08:52 | 46.04722 | 11.82714 | 37307 ft | 465 kts | 174° |
| 2026-04-30 08:52 | 45.98305 | 11.83834 | 37309 ft | 465 kts | 174° |
| 2026-04-30 08:53 | 45.91923 | 11.84939 | 37295 ft | 465 kts | 174° |
| 2026-04-30 08:53 | 45.85492 | 11.86042 | 37297 ft | 466 kts | 174° |
| 2026-04-30 08:54 | 45.79050 | 11.87150 | 37335 ft | 467 kts | 174° |
| 2026-04-30 08:54 | 45.72599 | 11.88265 | 37317 ft | 467 kts | 174° |
| 2026-04-30 08:55 | 45.66142 | 11.89369 | 37318 ft | 467 kts | 174° |
| 2026-04-30 08:55 | 45.59679 | 11.90470 | 37320 ft | 468 kts | 174° |
| 2026-04-30 08:56 | 45.54310 | 11.91388 | 37308 ft | 468 kts | 175° |
| 2026-04-30 08:56 | 45.47812 | 11.92501 | 37328 ft | 467 kts | 175° |
| 2026-04-30 08:57 | 45.41365 | 11.93597 | 37327 ft | 466 kts | 175° |
| 2026-04-30 08:57 | 45.34926 | 11.94686 | 37338 ft | 466 kts | 175° |
| 2026-04-30 08:58 | 45.28543 | 11.95765 | 37326 ft | 465 kts | 175° |
| 2026-04-30 08:58 | 45.22086 | 11.96857 | 37344 ft | 464 kts | 175° |
| 2026-04-30 08:59 | 45.15725 | 11.97930 | 37337 ft | 463 kts | 175° |
| 2026-04-30 08:59 | 45.09329 | 11.99000 | 37333 ft | 463 kts | 176° |
| 2026-04-30 09:00 | 45.02938 | 12.00070 | 37322 ft | 462 kts | 176° |
| 2026-04-30 09:00 | 44.96550 | 12.01138 | 37321 ft | 462 kts | 176° |
| 2026-04-30 09:01 | 44.90162 | 12.02148 | 37311 ft | 461 kts | 179° |
| 2026-04-30 09:01 | 44.83764 | 12.02661 | 37312 ft | 460 kts | 181° |
| 2026-04-30 09:02 | 44.74170 | 12.03080 | 37286 ft | 460 kts | 181° |
| 2026-04-30 09:02 | 44.67767 | 12.03470 | 37305 ft | 461 kts | 181° |
| 2026-04-30 09:03 | 44.61363 | 12.03931 | 37311 ft | 461 kts | 181° |
| 2026-04-30 09:03 | 44.54957 | 12.04392 | 37282 ft | 461 kts | 182° |
| 2026-04-30 09:04 | 44.48553 | 12.04821 | 37300 ft | 461 kts | 182° |
| 2026-04-30 09:04 | 44.42146 | 12.05233 | 37306 ft | 461 kts | 182° |
| 2026-04-30 09:05 | 44.35743 | 12.05658 | 37328 ft | 461 kts | 182° |
| 2026-04-30 09:05 | 44.29343 | 12.06080 | 37311 ft | 460 kts | 182° |
| 2026-04-30 09:06 | 44.22949 | 12.06506 | 37310 ft | 460 kts | 182° |
| 2026-04-30 09:06 | 44.16555 | 12.06929 | 37309 ft | 460 kts | 182° |
| 2026-04-30 09:07 | 44.10166 | 12.07349 | 37308 ft | 460 kts | 182° |
| 2026-04-30 09:07 | 44.03776 | 12.07772 | 37307 ft | 460 kts | 182° |
| 2026-04-30 09:08 | 43.97433 | 12.08190 | 37307 ft | 459 kts | 182° |
| 2026-04-30 09:08 | 43.91041 | 12.08600 | 37282 ft | 460 kts | 183° |
| 2026-04-30 09:09 | 43.84649 | 12.09017 | 37281 ft | 460 kts | 183° |
| 2026-04-30 09:09 | 43.78255 | 12.09449 | 37278 ft | 460 kts | 183° |
| 2026-04-30 09:10 | 43.71867 | 12.09866 | 37252 ft | 459 kts | 183° |
| 2026-04-30 09:10 | 43.65483 | 12.10271 | 37252 ft | 459 kts | 183° |
| 2026-04-30 09:11 | 43.59098 | 12.10683 | 37257 ft | 459 kts | 183° |
| 2026-04-30 09:11 | 43.52717 | 12.11091 | 37238 ft | 459 kts | 184° |
| 2026-04-30 09:12 | 43.46344 | 12.11498 | 37235 ft | 458 kts | 183° |
| 2026-04-30 09:12 | 43.39970 | 12.11910 | 37228 ft | 458 kts | 183° |
| 2026-04-30 09:13 | 43.33601 | 12.12323 | 37227 ft | 458 kts | 183° |
| 2026-04-30 09:13 | 43.27277 | 12.12729 | 37227 ft | 458 kts | 183° |
| 2026-04-30 09:14 | 43.20920 | 12.13133 | 37222 ft | 457 kts | 184° |
| 2026-04-30 09:14 | 43.14568 | 12.13529 | 37203 ft | 456 kts | 183° |
| 2026-04-30 09:15 | 43.08232 | 12.13935 | 37208 ft | 455 kts | 183° |
| 2026-04-30 09:15 | 43.01910 | 12.14343 | 37198 ft | 455 kts | 183° |
| 2026-04-30 09:16 | 42.95591 | 12.14744 | 37185 ft | 454 kts | 183° |
| 2026-04-30 09:16 | 42.89291 | 12.15144 | 37187 ft | 453 kts | 183° |
| 2026-04-30 09:17 | 42.83001 | 12.15541 | 37179 ft | 452 kts | 183° |
| 2026-04-30 09:17 | 42.76717 | 12.15935 | 37161 ft | 452 kts | 183° |
| 2026-04-30 09:18 | 42.70450 | 12.16334 | 37168 ft | 450 kts | 183° |
| 2026-04-30 09:18 | 42.64196 | 12.16777 | 37155 ft | 450 kts | 182° |
| 2026-04-30 09:19 | 42.57947 | 12.17275 | 37149 ft | 450 kts | 182° |
| 2026-04-30 09:19 | 42.51709 | 12.17783 | 37144 ft | 449 kts | 182° |
| 2026-04-30 09:20 | 42.45484 | 12.18279 | 37152 ft | 448 kts | 182° |
| 2026-04-30 09:20 | 42.39269 | 12.18765 | 37142 ft | 447 kts | 182° |
| 2026-04-30 09:21 | 42.33060 | 12.19241 | 37123 ft | 447 kts | 182° |
| 2026-04-30 09:21 | 42.26854 | 12.19718 | 37131 ft | 446 kts | 182° |
| 2026-04-30 09:22 | 42.20655 | 12.20202 | 37131 ft | 446 kts | 182° |
| 2026-04-30 09:22 | 42.14459 | 12.20681 | 37129 ft | 446 kts | 182° |
| 2026-04-30 09:23 | 42.08268 | 12.21153 | 37126 ft | 446 kts | 182° |
| 2026-04-30 09:23 | 42.02119 | 12.21626 | 37123 ft | 446 kts | 182° |
| 2026-04-30 09:24 | 41.95924 | 12.22102 | 37100 ft | 446 kts | 182° |
| 2026-04-30 09:24 | 41.89736 | 12.22582 | 37107 ft | 445 kts | 182° |
| 2026-04-30 09:25 | 41.83547 | 12.23053 | 37112 ft | 445 kts | 182° |
| 2026-04-30 09:25 | 41.77355 | 12.23518 | 37116 ft | 446 kts | 182° |
| 2026-04-30 09:26 | 41.71164 | 12.23995 | 37108 ft | 446 kts | 182° |
| 2026-04-30 09:26 | 41.64971 | 12.24474 | 37114 ft | 446 kts | 182° |
| 2026-04-30 09:27 | 41.58769 | 12.24946 | 37122 ft | 446 kts | 182° |
| 2026-04-30 09:27 | 41.52569 | 12.25408 | 37103 ft | 446 kts | 182° |
| 2026-04-30 09:28 | 41.46380 | 12.25875 | 37119 ft | 446 kts | 182° |
| 2026-04-30 09:28 | 41.40189 | 12.26342 | 37124 ft | 445 kts | 182° |
| 2026-04-30 09:29 | 41.34043 | 12.26802 | 37129 ft | 446 kts | 182° |
| 2026-04-30 09:29 | 41.27854 | 12.27273 | 37120 ft | 446 kts | 181° |
| 2026-04-30 09:30 | 41.21662 | 12.27739 | 37124 ft | 446 kts | 181° |
| 2026-04-30 09:30 | 41.15469 | 12.28206 | 37127 ft | 446 kts | 181° |
| 2026-04-30 09:31 | 41.09272 | 12.28675 | 37117 ft | 446 kts | 181° |
| 2026-04-30 09:31 | 41.03072 | 12.29132 | 37122 ft | 446 kts | 181° |
| 2026-04-30 09:32 | 40.96870 | 12.29590 | 37126 ft | 446 kts | 181° |
| 2026-04-30 09:32 | 40.90672 | 12.30051 | 37128 ft | 446 kts | 181° |
| 2026-04-30 09:33 | 40.84474 | 12.30505 | 37108 ft | 446 kts | 181° |
| 2026-04-30 09:33 | 40.78273 | 12.30964 | 37113 ft | 446 kts | 181° |
| 2026-04-30 09:34 | 40.72077 | 12.31430 | 37111 ft | 446 kts | 181° |
| 2026-04-30 09:34 | 40.65879 | 12.31889 | 37097 ft | 446 kts | 181° |
| 2026-04-30 09:35 | 40.59679 | 12.32343 | 37103 ft | 446 kts | 181° |
| 2026-04-30 09:35 | 40.56566 | 12.32571 | 36622 ft | 449 kts | 181° |
| 2026-04-30 09:35 | 40.53446 | 12.32800 | 36033 ft | 448 kts | 181° |
| 2026-04-30 09:36 | 40.50351 | 12.33031 | 35524 ft | 444 kts | 181° |
| 2026-04-30 09:36 | 40.47276 | 12.33258 | 35051 ft | 441 kts | 181° |
| 2026-04-30 09:36 | 40.44226 | 12.33482 | 34544 ft | 438 kts | 181° |
| 2026-04-30 09:36 | 40.41195 | 12.33703 | 34073 ft | 435 kts | 181° |
| 2026-04-30 09:37 | 40.38186 | 12.33922 | 33553 ft | 431 kts | 181° |
| 2026-04-30 09:37 | 40.35201 | 12.34140 | 33043 ft | 428 kts | 181° |
| 2026-04-30 09:37 | 40.32236 | 12.34357 | 32549 ft | 425 kts | 181° |
| 2026-04-30 09:37 | 40.29296 | 12.34574 | 32255 ft | 423 kts | 181° |
| 2026-04-30 09:38 | 40.26359 | 12.34787 | 32002 ft | 422 kts | 181° |
| 2026-04-30 09:38 | 40.23430 | 12.34998 | 31737 ft | 421 kts | 181° |
| 2026-04-30 09:38 | 40.20507 | 12.35212 | 31485 ft | 420 kts | 181° |
| 2026-04-30 09:38 | 40.17589 | 12.35425 | 31233 ft | 419 kts | 181° |
| 2026-04-30 09:39 | 40.14719 | 12.35629 | 30988 ft | 417 kts | 181° |
| 2026-04-30 09:39 | 40.11840 | 12.35835 | 30605 ft | 413 kts | 181° |
| 2026-04-30 09:39 | 40.08981 | 12.36042 | 30113 ft | 410 kts | 180° |
| 2026-04-30 09:39 | 40.06141 | 12.36254 | 29608 ft | 407 kts | 180° |
| 2026-04-30 09:40 | 40.03334 | 12.36464 | 29156 ft | 402 kts | 180° |
| 2026-04-30 09:40 | 40.00548 | 12.36665 | 28800 ft | 401 kts | 180° |
| 2026-04-30 09:40 | 39.97758 | 12.36869 | 28536 ft | 401 kts | 180° |
| 2026-04-30 09:40 | 39.94977 | 12.37072 | 28267 ft | 400 kts | 180° |
| 2026-04-30 09:41 | 39.92203 | 12.37266 | 28005 ft | 398 kts | 181° |
| 2026-04-30 09:41 | 39.89433 | 12.37461 | 27254 ft | 403 kts | 180° |
| 2026-04-30 09:41 | 39.86596 | 12.37658 | 26384 ft | 411 kts | 180° |
| 2026-04-30 09:41 | 39.83797 | 12.38179 | 26189 ft | 403 kts | 166° |
| 2026-04-30 09:42 | 39.81254 | 12.39591 | 26101 ft | 392 kts | 154° |
| 2026-04-30 09:42 | 39.78901 | 12.41262 | 26012 ft | 379 kts | 153° |
| 2026-04-30 09:42 | 39.76632 | 12.42887 | 25927 ft | 366 kts | 153° |
| 2026-04-30 09:42 | 39.74420 | 12.44484 | 25850 ft | 364 kts | 153° |
| 2026-04-30 09:43 | 39.72203 | 12.46087 | 25769 ft | 366 kts | 153° |
| 2026-04-30 09:43 | 39.69919 | 12.47731 | 25679 ft | 384 kts | 153° |
| 2026-04-30 09:43 | 39.67561 | 12.49425 | 25432 ft | 389 kts | 153° |
| 2026-04-30 09:43 | 39.65189 | 12.51123 | 25194 ft | 389 kts | 153° |
| 2026-04-30 09:44 | 39.62821 | 12.52817 | 24954 ft | 388 kts | 153° |
| 2026-04-30 09:44 | 39.61253 | 12.53937 | 24801 ft | 388 kts | 153° |
| 2026-04-30 09:44 | 39.58894 | 12.55621 | 24561 ft | 386 kts | 153° |
| 2026-04-30 09:44 | 39.55783 | 12.57839 | 24245 ft | 385 kts | 152° |
| 2026-04-30 09:45 | 39.53443 | 12.59507 | 24014 ft | 384 kts | 152° |
| 2026-04-30 09:45 | 39.51109 | 12.61171 | 23783 ft | 383 kts | 152° |
| 2026-04-30 09:45 | 39.48780 | 12.62833 | 23520 ft | 381 kts | 152° |
| 2026-04-30 09:45 | 39.46461 | 12.64489 | 23259 ft | 379 kts | 152° |
| 2026-04-30 09:46 | 39.44903 | 12.65601 | 23080 ft | 378 kts | 152° |
| 2026-04-30 09:46 | 39.42605 | 12.67238 | 22812 ft | 376 kts | 152° |
| 2026-04-30 09:46 | 39.40317 | 12.68867 | 22547 ft | 374 kts | 153° |
| 2026-04-30 09:46 | 39.38069 | 12.70463 | 22287 ft | 373 kts | 153° |
| 2026-04-30 09:47 | 39.35801 | 12.72068 | 22023 ft | 371 kts | 153° |
| 2026-04-30 09:47 | 39.32785 | 12.74207 | 21670 ft | 368 kts | 153° |
| 2026-04-30 09:47 | 39.31298 | 12.75259 | 21501 ft | 367 kts | 153° |
| 2026-04-30 09:47 | 39.29064 | 12.76840 | 21251 ft | 366 kts | 153° |
| 2026-04-30 09:48 | 39.26838 | 12.78410 | 21004 ft | 363 kts | 153° |
| 2026-04-30 09:48 | 39.24630 | 12.79969 | 20755 ft | 361 kts | 153° |
| 2026-04-30 09:48 | 39.22434 | 12.81519 | 20504 ft | 359 kts | 153° |
| 2026-04-30 09:48 | 39.20246 | 12.83064 | 20254 ft | 358 kts | 153° |
| 2026-04-30 09:49 | 39.18069 | 12.84602 | 20015 ft | 356 kts | 153° |
| 2026-04-30 09:49 | 39.15904 | 12.86132 | 19771 ft | 354 kts | 153° |
| 2026-04-30 09:49 | 39.13745 | 12.87654 | 19538 ft | 353 kts | 153° |
| 2026-04-30 09:49 | 39.11592 | 12.89168 | 19293 ft | 352 kts | 153° |
| 2026-04-30 09:50 | 39.09453 | 12.90675 | 19060 ft | 350 kts | 153° |
| 2026-04-30 09:50 | 39.07319 | 12.92178 | 18817 ft | 349 kts | 153° |
| 2026-04-30 09:50 | 39.05196 | 12.93675 | 18585 ft | 348 kts | 153° |
| 2026-04-30 09:50 | 39.03078 | 12.95166 | 18339 ft | 346 kts | 153° |
| 2026-04-30 09:51 | 39.00972 | 12.96647 | 18076 ft | 345 kts | 153° |
| 2026-04-30 09:51 | 38.98869 | 12.98123 | 17809 ft | 343 kts | 153° |
| 2026-04-30 09:51 | 38.96777 | 12.99586 | 17545 ft | 342 kts | 154° |
| 2026-04-30 09:51 | 38.94691 | 13.01044 | 17284 ft | 341 kts | 154° |
| 2026-04-30 09:52 | 38.92614 | 13.02500 | 17025 ft | 339 kts | 154° |
| 2026-04-30 09:52 | 38.90545 | 13.03948 | 16763 ft | 338 kts | 154° |
| 2026-04-30 09:52 | 38.88481 | 13.05390 | 16501 ft | 337 kts | 154° |
| 2026-04-30 09:52 | 38.86433 | 13.06815 | 16248 ft | 333 kts | 154° |
| 2026-04-30 09:53 | 38.84397 | 13.08234 | 15867 ft | 333 kts | 154° |
| 2026-04-30 09:53 | 38.82364 | 13.09656 | 15461 ft | 333 kts | 154° |
| 2026-04-30 09:53 | 38.80327 | 13.11078 | 15065 ft | 334 kts | 154° |
| 2026-04-30 09:53 | 38.78286 | 13.12497 | 14664 ft | 334 kts | 154° |
| 2026-04-30 09:54 | 38.76239 | 13.13920 | 14262 ft | 335 kts | 154° |
| 2026-04-30 09:54 | 38.74191 | 13.15347 | 13852 ft | 335 kts | 155° |
| 2026-04-30 09:54 | 38.72139 | 13.16770 | 13413 ft | 335 kts | 155° |
| 2026-04-30 09:54 | 38.70093 | 13.18188 | 12999 ft | 334 kts | 155° |
| 2026-04-30 09:55 | 38.68054 | 13.19602 | 12582 ft | 333 kts | 154° |
| 2026-04-30 09:55 | 38.66022 | 13.21012 | 12173 ft | 332 kts | 154° |
| 2026-04-30 09:55 | 38.64025 | 13.22398 | 11756 ft | 330 kts | 154° |
| 2026-04-30 09:55 | 38.62006 | 13.23798 | 11329 ft | 330 kts | 154° |
| 2026-04-30 09:56 | 38.59993 | 13.25194 | 10895 ft | 329 kts | 154° |
| 2026-04-30 09:56 | 38.57985 | 13.26587 | 10461 ft | 328 kts | 154° |
| 2026-04-30 09:56 | 38.55978 | 13.27977 | 10027 ft | 328 kts | 154° |
| 2026-04-30 09:56 | 38.53997 | 13.29345 | 9835 ft | 318 kts | 154° |
| 2026-04-30 09:57 | 38.52089 | 13.30665 | 9433 ft | 308 kts | 154° |
| 2026-04-30 09:57 | 38.50218 | 13.31959 | 8764 ft | 304 kts | 154° |
| 2026-04-30 09:57 | 38.48379 | 13.33228 | 8185 ft | 298 kts | 154° |
| 2026-04-30 09:57 | 38.46589 | 13.34462 | 7745 ft | 286 kts | 154° |
| 2026-04-30 09:58 | 38.44908 | 13.35626 | 7627 ft | 264 kts | 154° |
| 2026-04-30 09:58 | 38.43358 | 13.36698 | 7499 ft | 245 kts | 154° |
| 2026-04-30 09:58 | 38.41897 | 13.37713 | 7249 ft | 236 kts | 154° |
| 2026-04-30 09:58 | 38.40467 | 13.38711 | 6885 ft | 233 kts | 154° |
| 2026-04-30 09:59 | 38.37516 | 13.39885 | 6370 ft | 213 kts | 189° |
| 2026-04-30 09:59 | 38.34703 | 13.39303 | 5725 ft | 200 kts | 194° |
| 2026-04-30 10:00 | 38.32005 | 13.38604 | 4811 ft | 194 kts | 202° |
| 2026-04-30 10:00 | 38.30806 | 13.37869 | 4361 ft | 189 kts | 210° |
| 2026-04-30 10:01 | 38.28507 | 13.36256 | 3707 ft | 190 kts | 209° |
| 2026-04-30 10:01 | 38.27347 | 13.35436 | 3566 ft | 191 kts | 210° |
| 2026-04-30 10:01 | 38.26290 | 13.34433 | 3494 ft | 190 kts | 227° |
| 2026-04-30 10:02 | 38.25061 | 13.31448 | 3246 ft | 191 kts | 246° |
| 2026-04-30 10:02 | 38.24557 | 13.29924 | 3088 ft | 182 kts | 246° |
| 2026-04-30 10:02 | 38.24068 | 13.28456 | 3008 ft | 178 kts | 246° |
| 2026-04-30 10:02 | 38.23585 | 13.27017 | 3013 ft | 177 kts | 246° |
| 2026-04-30 10:03 | 38.23103 | 13.25577 | 3016 ft | 178 kts | 246° |
| 2026-04-30 10:03 | 38.22622 | 13.24137 | 2987 ft | 177 kts | 246° |
| 2026-04-30 10:03 | 38.22142 | 13.22692 | 2758 ft | 177 kts | 246° |
| 2026-04-30 10:03 | 38.21665 | 13.21266 | 2351 ft | 171 kts | 247° |
| 2026-04-30 10:04 | 38.21205 | 13.19910 | 1959 ft | 166 kts | 247° |
| 2026-04-30 10:04 | 38.20750 | 13.18559 | 1576 ft | 165 kts | 248° |
| 2026-04-30 10:04 | 38.20315 | 13.17239 | 1194 ft | 158 kts | 248° |
| 2026-04-30 10:04 | 38.19884 | 13.15998 | 849 ft | 149 kts | 249° |
| 2026-04-30 10:05 | 38.19485 | 13.14837 | 590 ft | 139 kts | 251° |
| 2026-04-30 10:05 | 38.19120 | 13.13723 | 375 ft | 135 kts | 251° |
| 2026-04-30 10:05 | 38.18770 | 13.12644 | 225 ft | 134 kts | 249° |
| 2026-04-30 10:05 | 38.18402 | 13.11546 | 70 ft | 132 kts | 249° |
| 2026-04-30 10:06 | 38.18089 | 13.10606 | 64 ft | 93 kts | 247° |
| 2026-04-30 10:06 | 38.17900 | 13.10041 | 63 ft | 51 kts | 247° |
| 2026-04-30 10:06 | 38.17771 | 13.09660 | 66 ft | 45 kts | 246° |
| 2026-04-30 10:06 | 38.17654 | 13.09310 | 66 ft | 38 kts | 248° |
| 2026-04-30 10:07 | 38.17630 | 13.09137 | 71 ft | 12 kts | 340° |
| 2026-04-30 10:07 | 38.17727 | 13.09184 | 70 ft | 19 kts | 22° |
| 2026-04-30 10:07 | 38.17842 | 13.09270 | 68 ft | 20 kts | 56° |
| 2026-04-30 10:07 | 38.17907 | 13.09457 | 63 ft | 26 kts | 65° |
| 2026-04-30 10:08 | 38.17979 | 13.09664 | 60 ft | 25 kts | 67° |
| 2026-04-30 10:08 | 38.18043 | 13.09850 | 56 ft | 23 kts | 65° |
| 2026-04-30 10:08 | 38.18106 | 13.10044 | 58 ft | 25 kts | 66° |
| 2026-04-30 10:08 | 38.18178 | 13.10255 | 61 ft | 27 kts | 66° |
| 2026-04-30 10:09 | 38.18254 | 13.10482 | 60 ft | 29 kts | 67° |
| 2026-04-30 10:09 | 38.18329 | 13.10706 | 62 ft | 27 kts | 67° |
| 2026-04-30 10:09 | 38.18389 | 13.10889 | 63 ft | 18 kts | 67° |
| 2026-04-30 10:09 | 38.18467 | 13.10903 | 58 ft | 16 kts | 291° |
| 2026-04-30 10:10 | 38.18500 | 13.10767 | 58 ft | 13 kts | 290° |
| 2026-04-30 10:10 | 38.18520 | 13.10691 | 62 ft | 7 kts | 316° |
| 2026-04-30 10:10 | 38.18549 | 13.10673 | 60 ft | 3 kts | 338° |
| 2026-04-30 10:10 | 38.18565 | 13.10665 | 63 ft | 2 kts | 337° |
| 2026-04-30 10:11 | 38.18568 | 13.10663 | 63 ft | 1 kts | 337° |
| 2026-04-30 10:11 | 38.18569 | 13.10663 | 63 ft | 0 kts | 337° |